createdAt,value
2017-10-09T00:00:33.926Z,9.93
2017-10-09T00:03:03.494Z,7.73
2017-10-09T00:05:29.255Z,9.00
2017-10-09T00:07:54.987Z,9.60
2017-10-09T00:10:20.776Z,7.63
2017-10-09T00:12:46.551Z,6.37
2017-10-09T00:15:12.294Z,8.37
2017-10-09T00:17:38.076Z,9.83
2017-10-09T00:20:03.855Z,15.07
2017-10-09T00:22:29.587Z,16.50
2017-10-09T00:24:55.386Z,7.40
2017-10-09T00:27:21.174Z,11.97
2017-10-09T00:29:46.939Z,9.33
2017-10-09T00:32:12.725Z,6.93
2017-10-09T00:34:38.491Z,5.70
2017-10-09T00:37:04.254Z,8.60
2017-10-09T00:39:29.995Z,9.30
2017-10-09T00:41:55.782Z,10.60
2017-10-09T00:44:21.531Z,6.07
2017-10-09T00:46:47.284Z,7.80
2017-10-09T00:49:13.066Z,8.47
2017-10-09T00:51:38.816Z,9.93
2017-10-09T00:54:04.603Z,6.70
2017-10-09T00:56:30.407Z,12.57
2017-10-09T00:58:56.958Z,9.15
2017-10-09T01:01:22.756Z,7.20
2017-10-09T01:03:48.498Z,9.37
2017-10-09T01:06:14.279Z,8.57
2017-10-09T01:08:40.035Z,6.77
2017-10-09T01:11:05.843Z,11.33
2017-10-09T01:13:31.639Z,11.70
2017-10-09T01:15:57.389Z,5.50
2017-10-09T01:18:23.143Z,6.27
2017-10-09T01:20:48.938Z,5.20
2017-10-09T01:23:14.687Z,6.60
2017-10-09T01:25:40.431Z,7.70
2017-10-09T01:28:06.236Z,4.40
2017-10-09T01:30:31.966Z,3.20
2017-10-09T01:32:57.706Z,3.07
2017-10-09T01:35:23.503Z,2.87
2017-10-09T01:37:50.025Z,3.10
2017-10-09T01:40:15.775Z,2.70
2017-10-09T01:42:41.545Z,2.50
2017-10-09T01:45:07.283Z,3.07
2017-10-09T01:47:33.036Z,3.50
2017-10-09T01:49:58.795Z,2.60
2017-10-09T01:52:24.534Z,5.10
2017-10-09T01:54:50.304Z,5.63
2017-10-09T01:57:16.066Z,4.33
2017-10-09T01:59:41.806Z,9.83
2017-10-09T02:02:07.580Z,4.30
2017-10-09T02:04:33.310Z,5.93
2017-10-09T02:06:59.054Z,8.37
2017-10-09T02:09:24.838Z,7.40
2017-10-09T02:11:50.572Z,8.80
2017-10-09T02:14:16.310Z,6.23
2017-10-09T02:16:42.108Z,10.17
2017-10-09T02:19:07.883Z,6.00
2017-10-09T02:21:33.676Z,6.27
2017-10-09T02:23:59.426Z,14.07
2017-10-09T02:26:25.204Z,8.80
2017-10-09T02:28:50.963Z,10.63
2017-10-09T02:31:16.754Z,10.83
2017-10-09T02:33:42.501Z,12.43
2017-10-09T02:36:08.255Z,9.20
2017-10-09T02:38:34.019Z,11.93
2017-10-09T02:40:59.757Z,10.20
2017-10-09T02:43:25.543Z,11.87
2017-10-09T02:45:51.303Z,14.07
2017-10-09T02:48:17.041Z,11.40
2017-10-09T02:50:42.814Z,11.80
2017-10-09T02:53:08.577Z,12.83
2017-10-09T02:55:34.339Z,10.37
2017-10-09T02:58:00.075Z,19.53
2017-10-09T03:00:25.871Z,14.43
2017-10-09T03:02:51.598Z,12.73
2017-10-09T03:05:17.330Z,12.13
2017-10-09T03:07:43.115Z,12.77
2017-10-09T03:10:08.861Z,10.33
2017-10-09T03:12:34.645Z,11.77
2017-10-09T03:15:00.411Z,10.57
2017-10-09T03:17:26.212Z,10.30
2017-10-09T03:19:51.990Z,7.90
2017-10-09T03:22:18.617Z,13.37
2017-10-09T03:24:45.456Z,10.77
2017-10-09T03:27:19.123Z,6.05
2017-10-09T03:29:45.702Z,6.65
2017-10-09T03:32:11.514Z,12.10
2017-10-09T03:34:37.296Z,7.40
2017-10-09T03:37:03.103Z,10.23
2017-10-09T03:39:28.883Z,12.70
2017-10-09T03:41:54.626Z,8.80
2017-10-09T03:44:20.378Z,9.37
2017-10-09T03:46:46.159Z,10.67
2017-10-09T03:49:11.946Z,11.83
2017-10-09T03:51:37.687Z,13.83
2017-10-09T03:54:03.432Z,11.97
2017-10-09T03:56:29.235Z,13.30
2017-10-09T03:58:54.973Z,18.47
2017-10-09T04:01:20.747Z,12.10
2017-10-09T04:03:46.491Z,16.07
2017-10-09T04:06:12.252Z,14.97
2017-10-09T04:08:37.987Z,15.90
2017-10-09T04:11:03.855Z,14.03
2017-10-09T04:13:29.625Z,11.03
2017-10-09T04:15:55.354Z,14.43
2017-10-09T04:18:21.096Z,14.33
2017-10-09T04:20:46.893Z,17.17
2017-10-09T04:23:12.649Z,21.70
2017-10-09T04:25:38.391Z,19.77
2017-10-09T04:28:04.246Z,21.43
2017-10-09T04:30:29.994Z,17.53
2017-10-09T04:32:55.778Z,21.40
2017-10-09T04:35:21.619Z,18.73
2017-10-09T04:37:47.364Z,17.27
2017-10-09T04:40:13.131Z,24.40
2017-10-09T04:42:38.898Z,19.17
2017-10-09T04:45:04.658Z,17.83
2017-10-09T04:47:30.403Z,17.13
2017-10-09T04:49:56.262Z,18.07
2017-10-09T04:52:22.008Z,18.10
2017-10-09T04:54:47.787Z,22.93
2017-10-09T04:57:13.535Z,22.27
2017-10-09T04:59:39.271Z,16.70
2017-10-09T05:02:05.055Z,35.07
2017-10-09T05:04:30.819Z,14.27
2017-10-09T05:06:56.563Z,15.07
2017-10-09T05:09:22.330Z,25.30
2017-10-09T05:11:48.083Z,24.43
2017-10-09T05:14:13.874Z,25.70
2017-10-09T05:16:39.643Z,21.33
2017-10-09T05:19:05.420Z,24.80
2017-10-09T05:21:31.205Z,27.50
2017-10-09T05:23:57.809Z,27.70
2017-10-09T05:26:23.582Z,31.67
2017-10-09T05:28:49.361Z,35.50
2017-10-09T05:31:15.112Z,26.47
2017-10-09T05:33:40.851Z,29.63
2017-10-09T05:36:06.630Z,27.07
2017-10-09T05:38:32.371Z,38.60
2017-10-09T05:40:58.115Z,31.67
2017-10-09T05:43:23.874Z,29.33
2017-10-09T05:45:49.646Z,28.83
2017-10-09T05:48:15.395Z,30.00
2017-10-09T05:50:41.142Z,29.60
2017-10-09T05:53:06.923Z,30.90
2017-10-09T05:55:32.669Z,28.40
2017-10-09T05:57:58.439Z,27.67
2017-10-09T06:00:24.189Z,28.03
2017-10-09T06:02:49.939Z,29.37
2017-10-09T06:05:15.704Z,28.40
2017-10-09T06:07:41.471Z,35.00
2017-10-09T06:10:07.264Z,29.50
2017-10-09T06:12:32.997Z,33.13
2017-10-09T06:14:58.749Z,28.20
2017-10-09T06:17:24.519Z,35.77
2017-10-09T06:19:50.292Z,33.57
2017-10-09T06:22:16.059Z,23.83
2017-10-09T06:24:41.810Z,26.80
2017-10-09T06:27:07.594Z,28.73
2017-10-09T06:29:33.342Z,27.30
2017-10-09T06:31:59.110Z,31.87
2017-10-09T06:34:24.878Z,36.63
2017-10-09T06:36:50.635Z,32.30
2017-10-09T06:39:16.420Z,28.87
2017-10-09T06:41:42.167Z,29.60
2017-10-09T06:44:07.920Z,32.10
2017-10-09T06:46:33.706Z,29.10
2017-10-09T06:48:59.482Z,35.40
2017-10-09T06:51:25.274Z,27.33
2017-10-09T06:53:51.030Z,24.80
2017-10-09T06:56:16.795Z,30.67
2017-10-09T06:58:42.605Z,26.80
2017-10-09T07:01:08.355Z,33.47
2017-10-09T07:03:34.114Z,31.13
2017-10-09T07:05:59.915Z,29.57
2017-10-09T07:08:25.670Z,35.20
2017-10-09T07:10:51.439Z,28.83
2017-10-09T07:13:17.226Z,35.60
2017-10-09T07:15:42.972Z,28.60
2017-10-09T07:18:08.760Z,29.03
2017-10-09T07:20:34.543Z,26.43
2017-10-09T07:23:00.312Z,34.20
2017-10-09T07:25:26.091Z,27.00
2017-10-09T07:27:51.862Z,34.17
2017-10-09T07:30:17.607Z,35.47
2017-10-09T07:32:43.378Z,34.97
2017-10-09T07:35:09.127Z,31.47
2017-10-09T07:37:34.899Z,32.90
2017-10-09T07:40:00.642Z,30.50
2017-10-09T07:42:26.387Z,38.93
2017-10-09T07:44:52.178Z,33.27
2017-10-09T07:47:17.975Z,29.93
2017-10-09T07:49:43.708Z,39.97
2017-10-09T07:52:09.459Z,33.53
2017-10-09T07:54:35.253Z,40.07
2017-10-09T07:57:01.075Z,38.30
2017-10-09T07:59:27.502Z,42.37
2017-10-09T08:01:53.239Z,33.97
2017-10-09T08:04:19.042Z,33.23
2017-10-09T08:06:44.919Z,44.30
2017-10-09T08:09:10.671Z,33.10
2017-10-09T08:11:36.423Z,41.27
2017-10-09T08:14:02.200Z,34.60
2017-10-09T08:16:27.977Z,38.57
2017-10-09T08:18:53.736Z,31.60
2017-10-09T08:21:19.486Z,25.37
2017-10-09T08:23:45.322Z,43.43
2017-10-09T08:26:11.103Z,39.10
2017-10-09T08:28:36.847Z,39.80
2017-10-09T08:31:02.586Z,26.73
2017-10-09T08:33:28.367Z,27.30
2017-10-09T08:35:54.103Z,31.77
2017-10-09T08:38:19.900Z,21.97
2017-10-09T08:40:45.640Z,21.67
2017-10-09T08:43:11.386Z,29.53
2017-10-09T08:45:37.154Z,29.73
2017-10-09T08:48:02.908Z,26.93
2017-10-09T08:50:32.206Z,23.70
2017-10-09T08:52:58.017Z,27.23
2017-10-09T08:55:23.823Z,21.00
2017-10-09T08:57:49.610Z,24.97
2017-10-09T09:00:15.382Z,17.70
2017-10-09T09:02:41.132Z,19.03
2017-10-09T09:05:06.952Z,18.67
2017-10-09T09:07:32.700Z,18.17
2017-10-09T09:09:58.443Z,12.40
2017-10-09T09:12:24.243Z,20.17
2017-10-09T09:14:49.970Z,24.50
2017-10-09T09:17:15.751Z,22.20
2017-10-09T09:19:41.495Z,19.33
2017-10-09T09:22:07.236Z,17.53
2017-10-09T09:24:33.011Z,16.53
2017-10-09T09:26:58.768Z,16.13
2017-10-09T09:29:24.538Z,22.10
2017-10-09T09:31:50.291Z,20.27
2017-10-09T09:34:16.045Z,17.70
2017-10-09T09:36:41.823Z,14.20
2017-10-09T09:39:07.583Z,14.83
2017-10-09T09:41:33.360Z,15.40
2017-10-09T09:43:59.102Z,12.17
2017-10-09T09:46:24.884Z,12.47
2017-10-09T09:48:50.662Z,10.83
2017-10-09T09:51:16.407Z,12.30
2017-10-09T09:53:42.153Z,12.30
2017-10-09T09:56:07.923Z,13.40
2017-10-09T09:58:33.698Z,10.53
2017-10-09T10:00:59.459Z,11.17
2017-10-09T10:03:25.194Z,12.43
2017-10-09T10:05:50.981Z,13.40
2017-10-09T10:08:16.726Z,11.90
2017-10-09T10:10:42.480Z,9.83
2017-10-09T10:13:08.277Z,10.10
2017-10-09T10:15:34.015Z,10.70
2017-10-09T10:18:00.020Z,10.60
2017-10-09T10:20:25.802Z,11.90
2017-10-09T10:22:51.567Z,9.80
2017-10-09T10:25:17.380Z,12.97
2017-10-09T10:27:43.112Z,17.27
2017-10-09T10:30:08.900Z,9.03
2017-10-09T10:32:34.663Z,11.40
2017-10-09T10:35:00.415Z,9.87
2017-10-09T10:37:26.183Z,9.67
2017-10-09T10:39:51.931Z,8.00
2017-10-09T10:42:17.726Z,12.33
2017-10-09T10:44:43.487Z,14.73
2017-10-09T10:47:09.294Z,10.40
2017-10-09T10:49:35.036Z,10.20
2017-10-09T10:52:00.819Z,7.40
2017-10-09T10:54:26.584Z,8.57
2017-10-09T10:56:52.355Z,7.23
2017-10-09T10:59:18.111Z,7.67
2017-10-09T11:01:43.903Z,6.87
2017-10-09T11:04:09.649Z,10.40
2017-10-09T11:06:35.410Z,9.83
2017-10-09T11:09:01.204Z,10.07
2017-10-09T11:11:26.942Z,6.63
2017-10-09T11:13:52.673Z,7.63
2017-10-09T11:16:18.449Z,5.67
2017-10-09T11:18:44.318Z,6.90
2017-10-09T11:21:10.054Z,6.40
2017-10-09T11:23:35.843Z,8.83
2017-10-09T11:26:01.574Z,11.90
2017-10-09T11:28:27.323Z,7.83
2017-10-09T11:30:53.095Z,6.70
2017-10-09T11:33:18.912Z,5.30
2017-10-09T11:35:44.647Z,5.10
2017-10-09T11:38:10.382Z,6.93
2017-10-09T11:40:36.162Z,7.80
2017-10-09T11:43:01.899Z,7.37
2017-10-09T11:45:27.640Z,7.60
2017-10-09T11:47:53.407Z,9.30
2017-10-09T11:50:19.202Z,8.20
2017-10-09T11:52:44.948Z,7.03
2017-10-09T11:55:10.762Z,8.77
2017-10-09T11:57:36.490Z,6.17
2017-10-09T12:00:02.255Z,6.20
2017-10-09T12:02:28.031Z,16.60
2017-10-09T12:04:53.822Z,8.03
2017-10-09T12:07:19.599Z,7.90
2017-10-09T12:09:45.343Z,8.20
2017-10-09T12:12:11.083Z,4.57
2017-10-09T12:14:36.846Z,4.63
2017-10-09T12:17:02.586Z,4.60
2017-10-09T12:19:28.384Z,7.10
2017-10-09T12:21:54.177Z,6.60
2017-10-09T12:24:20.018Z,5.73
2017-10-09T12:26:45.822Z,5.30
2017-10-09T12:29:11.584Z,3.20
2017-10-09T12:31:37.327Z,3.23
2017-10-09T12:34:03.119Z,11.13
2017-10-09T12:36:28.866Z,4.43
2017-10-09T12:38:54.602Z,4.57
2017-10-09T12:41:20.351Z,4.70
2017-10-09T12:43:46.117Z,3.63
2017-10-09T12:46:11.890Z,3.90
2017-10-09T12:48:37.642Z,13.00
2017-10-09T12:51:03.395Z,4.33
2017-10-09T12:53:29.179Z,35.07
2017-10-09T12:55:54.965Z,9.33
2017-10-09T12:58:20.706Z,3.70
2017-10-09T13:00:46.495Z,12.43
2017-10-09T13:03:12.251Z,4.10
2017-10-09T13:05:38.002Z,6.40
2017-10-09T13:08:03.840Z,2.80
2017-10-09T13:10:29.577Z,2.60
2017-10-09T13:12:55.317Z,5.53
2017-10-09T13:15:21.082Z,5.73
2017-10-09T13:17:46.839Z,4.33
2017-10-09T13:20:12.605Z,2.97
2017-10-09T13:22:38.355Z,4.40
2017-10-09T13:25:04.160Z,3.33
2017-10-09T13:27:30.473Z,2.90
2017-10-09T13:29:56.227Z,3.73
2017-10-09T13:32:21.998Z,3.07
2017-10-09T13:34:47.771Z,4.87
2017-10-09T13:37:13.539Z,3.50
2017-10-09T13:39:39.297Z,4.10
2017-10-09T13:42:05.094Z,7.20
2017-10-09T13:44:30.868Z,6.30
2017-10-09T13:46:56.619Z,6.70
2017-10-09T13:49:22.947Z,2.80
2017-10-09T13:51:49.590Z,2.80
2017-10-09T13:54:16.222Z,1.97
2017-10-09T13:56:42.403Z,3.53
2017-10-09T13:59:08.723Z,1.60
2017-10-09T14:01:34.889Z,8.13
2017-10-09T14:06:34.120Z,1.57
2017-10-09T14:09:00.210Z,1.40
2017-10-09T14:11:26.293Z,1.50
2017-10-09T14:13:52.879Z,10.43
2017-10-09T14:16:18.730Z,2.73
2017-10-09T14:18:44.555Z,2.20
2017-10-09T14:41:05.858Z,1.80
2017-10-09T14:43:54.535Z,1.93
2017-10-09T15:03:02.415Z,2.20
2017-10-09T15:22:34.740Z,1.80
2017-10-09T15:25:00.646Z,2.00
2017-10-09T15:44:31.744Z,4.83
2017-10-09T15:46:57.528Z,7.00
2017-10-09T16:06:28.315Z,5.73
2017-10-09T16:25:35.278Z,9.43
2017-10-09T16:44:42.453Z,10.23
2017-10-09T17:03:50.118Z,10.80
2017-10-09T17:16:17.736Z,6.72
2017-10-09T17:36:07.028Z,8.15
2017-10-09T17:38:32.803Z,11.10
2017-10-09T17:41:21.939Z,9.30
2017-10-09T18:00:29.983Z,18.75
2017-10-09T18:03:19.023Z,10.13
2017-10-09T18:06:15.802Z,13.35
2017-10-09T18:25:20.416Z,23.05
2017-10-09T18:44:28.331Z,11.82
2017-10-09T18:47:17.084Z,10.50
2017-10-09T18:50:13.784Z,14.98
2017-10-09T19:09:17.632Z,10.07
2017-10-09T19:28:25.152Z,19.55
2017-10-09T19:31:13.890Z,15.53
2017-10-09T19:50:22.228Z,14.30
2017-10-09T19:53:10.859Z,11.57
2017-10-09T20:12:18.708Z,15.75
2017-10-09T20:15:07.330Z,16.37
2017-10-09T20:18:04.221Z,10.40
2017-10-09T20:21:01.109Z,9.95
2017-10-09T20:23:57.687Z,12.52
2017-10-09T20:26:55.186Z,15.63
2017-10-09T20:29:52.325Z,10.25
2017-10-09T20:32:49.823Z,27.15
2017-10-09T20:51:56.924Z,8.15
2017-10-09T20:57:43.663Z,14.18
2017-10-09T21:00:33.099Z,17.47
2017-10-09T21:39:37.310Z,21.98
2017-10-09T21:42:03.137Z,12.68
2017-10-09T21:44:52.298Z,15.07
2017-10-09T21:47:49.022Z,13.10
2017-10-09T21:50:45.529Z,24.95
2017-10-09T21:53:42.027Z,13.85
2017-10-09T21:56:38.834Z,12.05
2017-10-09T21:59:36.212Z,12.73
2017-10-09T22:02:33.765Z,16.92
2017-10-09T22:04:59.564Z,10.88
2017-10-09T22:24:31.110Z,9.52
2017-10-09T22:26:56.927Z,8.82
2017-10-09T22:29:46.333Z,13.63
2017-10-09T22:48:54.351Z,13.18
2017-10-09T22:51:43.099Z,9.73
2017-10-09T22:54:45.937Z,8.82
2017-10-09T22:57:43.276Z,8.00
2017-10-09T23:00:40.782Z,11.02
2017-10-09T23:03:37.936Z,10.05
2017-10-09T23:26:05.141Z,10.40
2017-10-09T23:29:02.537Z,9.07
2017-10-09T23:34:48.594Z,11.50
2017-10-09T23:37:37.253Z,13.10
2017-10-09T23:59:59.094Z,16.08
